Time;durP1;ratioP1;P1;durP2;ratioP2;P2;SDS_P1;SDS_P2;PMS_P1;PMS_P2;Temp;Humidity;BMP_temperature;BMP_pressure;BME280_temperature;BME280_humidity;BME280_pressure;Samples;Min_cycle;Max_cycle;Signal;HPM_P1;HPM_P2
2023/12/01 00:01:04;;;;;;;5.88;5.25;;;;;;;-0.30;100.00;99887.38;6066878;23;20096;-72
2023/12/01 00:03:31;;;;;;;7.07;6.60;;;;;;;-0.62;100.00;99842.53;6056361;23;20029;-71
2023/12/01 00:05:58;;;;;;;8.20;5.35;;;;;;;-0.39;100.00;99883.28;6035130;23;20082;-72
2023/12/01 00:08:26;;;;;;;11.05;6.18;;;;;;;-0.30;100.00;99896.00;6060800;23;20606;-72
2023/12/01 00:10:53;;;;;;;8.35;4.88;;;;;;;-0.81;100.00;99829.13;6062609;23;20034;-72
2023/12/01 00:13:19;;;;;;;20.83;7.80;;;;;;;-0.68;100.00;99845.19;6027959;23;20058;-73
2023/12/01 00:15:46;;;;;;;6.93;4.70;;;;;;;-0.43;100.00;99908.25;6063347;23;20738;-71
2023/12/01 00:18:12;;;;;;;7.28;6.13;;;;;;;-0.46;100.00;99895.44;6062154;23;20662;-71
2023/12/01 00:20:43;;;;;;;5.07;4.70;;;;;;;-0.39;100.00;99905.63;6062994;23;20030;-71
2023/12/01 00:23:09;;;;;;;11.45;5.20;;;;;;;-1.31;100.00;99764.00;6049088;23;20011;-71
2023/12/01 00:25:36;;;;;;;11.95;8.65;;;;;;;-0.78;100.00;99849.69;6065934;23;20709;-71
2023/12/01 00:28:02;;;;;;;5.78;5.18;;;;;;;-0.61;100.00;99881.13;6055716;23;20010;-72
2023/12/01 00:30:29;;;;;;;6.18;5.68;;;;;;;-1.13;100.00;99796.28;6066299;23;20045;-72
2023/12/01 00:32:59;;;;;;;4.93;4.63;;;;;;;-0.50;100.00;99906.69;6039688;23;20036;-72
2023/12/01 00:35:25;;;;;;;10.95;6.95;;;;;;;-0.53;100.00;99901.59;6028813;23;20026;-72
2023/12/01 00:37:52;;;;;;;3.75;3.55;;;;;;;-0.50;100.00;99890.38;6063961;23;20590;-73
2023/12/01 00:40:18;;;;;;;19.85;18.55;;;;;;;-0.33;100.00;99915.81;5947519;23;20097;-73
2023/12/01 00:42:45;;;;;;;6.50;5.85;;;;;;;-1.44;100.00;99735.09;6043891;23;20014;-72
2023/12/01 00:45:12;;;;;;;4.95;4.60;;;;;;;-0.43;100.00;99908.25;6060447;23;20041;-72
2023/12/01 00:47:38;;;;;;;6.88;6.32;;;;;;;-0.42;100.00;99909.13;6055536;23;20089;-71
2023/12/01 00:50:05;;;;;;;7.15;6.57;;;;;;;-0.44;100.00;99906.56;6066642;23;20057;-72
2023/12/01 00:52:31;;;;;;;11.57;7.35;;;;;;;-0.78;100.00;99857.44;6056202;23;20103;-71
2023/12/01 00:54:58;;;;;;;4.90;4.43;;;;;;;-0.71;100.00;99868.44;6067385;23;20018;-72
2023/12/01 00:57:24;;;;;;;8.52;7.63;;;;;;;-0.40;100.00;99912.53;6020943;23;20135;-71
2023/12/01 00:59:51;;;;;;;5.40;4.90;;;;;;;-0.52;100.00;99899.84;6073043;23;20021;-71
2023/12/01 01:02:18;;;;;;;8.73;6.10;;;;;;;-0.46;100.00;99903.19;6035861;23;20030;-71
2023/12/01 01:04:44;;;;;;;6.97;6.18;;;;;;;-0.52;100.00;99899.84;6077372;23;20030;-71
2023/12/01 01:07:11;;;;;;;10.45;6.70;;;;;;;-0.39;100.00;99927.09;6065355;23;20448;-71
2023/12/01 01:09:38;;;;;;;7.90;7.18;;;;;;;-0.34;100.00;99922.72;6059565;23;20018;-71
2023/12/01 01:12:05;;;;;;;7.82;7.07;;;;;;;-0.61;100.00;99882.84;6037500;23;20501;-71
2023/12/01 01:14:32;;;;;;;6.25;5.70;;;;;;;-0.57;100.00;99888.81;6058162;23;20048;-71
2023/12/01 01:16:58;;;;;;;5.70;5.30;;;;;;;-0.48;100.00;99902.38;6056023;23;20669;-71
2023/12/01 01:19:25;;;;;;;12.68;7.40;;;;;;;-0.36;100.00;99933.91;6071835;23;20034;-71
2023/12/01 01:21:51;;;;;;;9.77;8.77;;;;;;;-0.59;100.00;99893.97;6063256;23;20471;-71
2023/12/01 01:24:18;;;;;;;7.88;7.15;;;;;;;-0.36;100.00;99928.75;6071153;23;20022;-71
2023/12/01 01:26:44;;;;;;;13.50;9.40;;;;;;;-0.33;100.00;99926.13;6032556;23;20282;-70
2023/12/01 01:29:11;;;;;;;15.55;8.48;;;;;;;-0.30;100.00;99928.63;6059820;23;20021;-71
2023/12/01 01:31:37;;;;;;;15.48;8.85;;;;;;;-0.42;100.00;99911.72;6058721;23;20488;-70
2023/12/01 01:34:04;;;;;;;5.68;5.10;;;;;;;-0.25;100.00;99934.56;6063342;23;20362;-71
2023/12/01 01:36:31;;;;;;;7.55;6.93;;;;;;;-0.28;100.00;99937.19;6055337;23;20043;-71
2023/12/01 01:38:59;;;;;;;7.38;5.70;;;;;;;-0.29;100.00;99930.34;6055211;23;20098;-72
2023/12/01 01:41:25;;;;;;;9.55;8.80;;;;;;;-0.25;100.00;99937.13;6055863;23;20060;-71
2023/12/01 01:43:52;;;;;;;7.20;4.72;;;;;;;-0.25;100.00;99930.25;6024965;23;20080;-72
2023/12/01 01:46:18;;;;;;;7.13;6.07;;;;;;;-0.27;100.00;99933.75;6059260;23;20478;-71
2023/12/01 01:48:45;;;;;;;7.15;6.47;;;;;;;-0.79;100.00;99844.56;6063935;23;20103;-71
2023/12/01 01:51:14;;;;;;;8.77;6.03;;;;;;;-0.31;100.00;99927.78;6052068;23;20054;-71
2023/12/01 01:53:43;;;;;;;8.77;7.55;;;;;;;-0.50;100.00;99895.50;6058322;23;20023;-71
2023/12/01 01:56:12;;;;;;;8.68;8.00;;;;;;;-0.45;100.00;99897.13;6060739;23;20582;-71
2023/12/01 01:58:40;;;;;;;5.25;4.70;;;;;;;-0.32;100.00;99909.75;6057140;23;20102;-71
2023/12/01 02:01:07;;;;;;;8.27;6.57;;;;;;;-0.28;100.00;99906.25;6068860;23;20197;-71
2023/12/01 02:03:35;;;;;;;11.35;8.63;;;;;;;-1.14;100.00;99756.81;6023571;23;20702;-71
2023/12/01 02:06:06;;;;;;;4.88;4.53;;;;;;;-0.31;100.00;99906.31;6062875;23;20034;-71
2023/12/01 02:08:36;;;;;;;7.78;6.82;;;;;;;-0.98;100.00;99788.28;6060194;23;20029;-71
2023/12/01 02:11:03;;;;;;;7.70;6.35;;;;;;;-0.75;100.00;99817.88;6063195;23;20025;-71
2023/12/01 02:13:30;;;;;;;9.40;7.25;;;;;;;-0.67;100.00;99852.06;6056711;23;20081;-71
2023/12/01 02:15:57;;;;;;;7.13;6.55;;;;;;;-0.77;100.00;99812.75;6060250;23;20029;-71
2023/12/01 02:18:30;;;;;;;6.28;5.40;;;;;;;-0.24;100.00;99879.50;6060054;23;20172;-71
2023/12/01 02:20:58;;;;;;;18.95;5.38;;;;;;;-0.19;100.00;99885.44;6072397;23;20025;-71
2023/12/01 02:23:24;;;;;;;14.63;8.80;;;;;;;-0.22;100.00;99870.03;6050952;23;20072;-71
2023/12/01 02:25:51;;;;;;;16.25;7.20;;;;;;;-0.32;100.00;99855.63;6068454;23;20021;-71
2023/12/01 02:28:20;;;;;;;9.73;6.40;;;;;;;-0.41;100.00;99838.63;6054326;23;20060;-71
2023/12/01 02:30:51;;;;;;;5.43;4.72;;;;;;;-0.83;100.00;99769.91;6071818;23;20405;-71
2023/12/01 02:33:19;;;;;;;6.20;5.60;;;;;;;-0.41;100.00;99836.91;6058561;23;20155;-72
2023/12/01 02:35:48;;;;;;;5.70;5.20;;;;;;;-0.48;100.00;99829.31;6038135;23;20002;-71
2023/12/01 02:38:15;;;;;;;8.23;7.07;;;;;;;-0.62;100.00;99775.53;6062663;23;20038;-71
2023/12/01 02:40:49;;;;;;;6.55;6.10;;;;;;;-0.23;100.00;99801.28;6071381;23;20218;-71
2023/12/01 02:43:17;;;;;;;10.25;5.78;;;;;;;-0.26;100.00;99784.19;6037515;23;20038;-71
2023/12/01 02:45:44;;;;;;;3.97;3.70;;;;;;;-0.81;100.00;99675.41;6060370;23;20872;-72
2023/12/01 02:48:11;;;;;;;7.88;6.88;;;;;;;-0.83;100.00;99672.03;6062293;23;20030;-72
2023/12/01 02:50:38;;;;;;;5.60;5.20;;;;;;;-0.45;100.00;99716.72;6044130;23;20081;-71
2023/12/01 02:53:05;;;;;;;10.38;5.25;;;;;;;-1.10;100.00;99609.13;6054780;23;20015;-72
2023/12/01 02:55:32;;;;;;;11.57;8.93;;;;;;;-0.86;100.00;99619.75;6064580;23;20049;-71
2023/12/01 02:57:58;;;;;;;8.13;4.57;;;;;;;-0.98;100.00;99577.09;6065147;23;20378;-71
2023/12/01 03:00:25;;;;;;;4.20;3.90;;;;;;;-1.17;100.00;99532.91;6059769;23;20033;-71
2023/12/01 03:02:52;;;;;;;8.07;5.30;;;;;;;-0.23;100.00;99672.38;6037647;23;20014;-71
2023/12/01 03:05:20;;;;;;;6.00;5.50;;;;;;;-0.21;100.00;99668.03;6063277;23;20508;-72
2023/12/01 03:07:47;;;;;;;5.25;4.75;;;;;;;-0.49;100.00;99606.84;6060566;23;20557;-71
2023/12/01 03:10:14;;;;;;;5.05;4.70;;;;;;;-0.21;100.00;99631.94;6026863;23;20081;-71
2023/12/01 03:12:42;;;;;;;4.70;4.40;;;;;;;-0.16;100.00;99619.78;6073748;23;19994;-71
2023/12/01 03:15:11;;;;;;;7.65;6.20;;;;;;;-0.41;100.00;99576.56;6065454;23;20093;-71
2023/12/01 03:17:38;;;;;;;24.00;8.40;;;;;;;-0.18;100.00;99592.31;6064072;23;20350;-72
2023/12/01 03:20:10;;;;;;;4.45;3.97;;;;;;;-0.29;100.00;99574.56;6039030;23;20041;-74
2023/12/01 03:22:38;;;;;;;8.32;7.40;;;;;;;-0.56;100.00;99527.13;6063687;23;20128;-72
2023/12/01 03:25:09;;;;;;;21.58;7.30;;;;;;;-0.36;100.00;99549.81;6059542;23;20041;-72
2023/12/01 03:27:40;;;;;;;7.60;6.95;;;;;;;-0.13;100.00;99568.13;6061057;23;20014;-72
2023/12/01 03:30:14;;;;;;;9.27;6.60;;;;;;;-0.23;100.00;99539.16;6064573;23;20033;-72
2023/12/01 03:32:46;;;;;;;6.05;5.57;;;;;;;-0.33;100.00;99526.56;6067752;23;20496;-71
2023/12/01 03:35:14;;;;;;;4.72;4.30;;;;;;;-0.29;100.00;99530.75;6056611;23;20074;-70
2023/12/01 03:37:42;;;;;;;6.72;6.10;;;;;;;-0.32;100.00;99515.34;6067238;23;20069;-72
2023/12/01 03:40:12;;;;;;;8.98;5.00;;;;;;;-0.37;100.00;99519.78;6062404;23;20034;-72
2023/12/01 03:42:42;;;;;;;6.38;5.57;;;;;;;-0.12;100.00;99556.94;6068108;23;20058;-71
2023/12/01 03:45:12;;;;;;;12.25;6.75;;;;;;;-0.14;100.00;99556.13;6063522;23;20113;-71
2023/12/01 03:47:50;;;;;;;10.02;7.45;;;;;;;-0.18;100.00;99551.94;6032372;23;20014;-72
2023/12/01 03:50:18;;;;;;;9.20;6.68;;;;;;;-0.45;100.00;99507.94;6075369;23;20037;-71
2023/12/01 03:52:48;;;;;;;7.32;6.80;;;;;;;-0.83;100.00;99432.50;6052885;23;20026;-71
2023/12/01 03:55:15;;;;;;;6.47;5.90;;;;;;;-0.79;100.00;99435.00;6065952;23;20584;-70
2023/12/01 03:57:43;;;;;;;12.73;9.07;;;;;;;-0.14;100.00;99530.34;6051026;23;20015;-72
2023/12/01 04:00:16;;;;;;;9.40;7.30;;;;;;;-0.38;100.00;99502.63;6060637;23;20677;-72
2023/12/01 04:02:45;;;;;;;17.95;7.80;;;;;;;-0.16;100.00;99520.94;6056617;23;20037;-73
2023/12/01 04:05:17;;;;;;;13.35;6.35;;;;;;;-0.31;100.00;99481.78;6059007;23;20086;-73
2023/12/01 04:07:50;;;;;;;11.38;7.07;;;;;;;-0.75;100.00;99401.38;6061877;23;20020;-72
2023/12/01 04:10:19;;;;;;;26.23;8.25;;;;;;;-0.10;100.00;99485.53;6069529;23;20035;-71
2023/12/01 04:12:46;;;;;;;8.45;5.25;;;;;;;-0.12;100.00;99479.56;6063140;23;20087;-72
2023/12/01 04:15:15;;;;;;;12.05;7.05;;;;;;;-0.14;100.00;99473.63;6061719;23;20027;-71
2023/12/01 04:17:42;;;;;;;9.20;8.50;;;;;;;-0.11;100.00;99481.25;6058691;23;20065;-71
2023/12/01 04:20:24;;;;;;;11.18;6.30;;;;;;;-0.16;100.00;99474.53;6066757;23;20033;-71
2023/12/01 04:23:00;;;;;;;8.88;6.57;;;;;;;-0.10;100.00;99472.63;6060192;23;20025;-71
2023/12/01 04:25:27;;;;;;;9.43;8.48;;;;;;;-0.11;100.00;99472.69;6064531;23;20030;-72
2023/12/01 04:27:56;;;;;;;5.07;4.65;;;;;;;-0.08;100.00;99468.28;6058974;23;20038;-71
2023/12/01 04:30:23;;;;;;;14.88;5.78;;;;;;;-0.11;100.00;99452.03;6067343;23;20038;-71
2023/12/01 04:32:55;;;;;;;24.38;7.80;;;;;;;-0.13;100.00;99452.09;6056434;23;20017;-71
2023/12/01 04:35:29;;;;;;;11.15;7.32;;;;;;;-0.19;100.00;99441.94;6054065;23;20080;-71
2023/12/01 04:37:57;;;;;;;13.38;7.95;;;;;;;-0.09;100.00;99448.53;6061015;23;21129;-71
2023/12/01 04:40:26;;;;;;;5.50;5.20;;;;;;;-0.14;100.00;99423.75;6027149;23;20024;-71
2023/12/01 04:42:57;;;;;;;6.57;6.05;;;;;;;-1.57;100.00;99189.06;6058253;23;20111;-71
2023/12/01 04:45:26;;;;;;;7.32;6.18;;;;;;;-0.79;100.00;99299.31;6058623;23;20688;-70
2023/12/01 04:47:54;;;;;;;7.00;4.97;;;;;;;-1.40;100.00;99196.34;6063852;23;20042;-71
2023/12/01 04:50:23;;;;;;;4.10;3.90;;;;;;;-0.09;100.00;99421.91;6065074;23;20021;-72
2023/12/01 04:52:55;;;;;;;7.93;6.47;;;;;;;-0.28;100.00;99401.81;6057305;23;20029;-71
2023/12/01 04:55:27;;;;;;;7.55;6.95;;;;;;;-0.10;100.00;99435.66;6065057;23;20034;-71
2023/12/01 04:57:55;;;;;;;11.55;8.88;;;;;;;-0.12;100.00;99446.06;6059668;23;20056;-71
2023/12/01 05:00:27;;;;;;;5.20;4.65;;;;;;;-0.39;100.00;99415.88;6066014;23;20051;-72
2023/12/01 05:03:06;;;;;;;6.28;5.88;;;;;;;-0.12;100.00;99438.31;6068501;23;20033;-71
2023/12/01 05:05:34;;;;;;;8.80;8.05;;;;;;;-0.50;100.00;99373.22;6057577;23;20126;-71
2023/12/01 05:08:07;;;;;;;6.53;5.95;;;;;;;-0.36;100.00;99398.63;6060273;23;20026;-71
2023/12/01 05:10:35;;;;;;;20.27;5.80;;;;;;;-0.26;100.00;99414.63;6053865;23;20029;-71
2023/12/01 05:13:04;;;;;;;4.97;4.68;;;;;;;-0.14;100.00;99458.16;6068732;23;20010;-71
2023/12/01 05:15:33;;;;;;;6.07;5.75;;;;;;;-0.86;100.00;99357.91;6056421;23;20034;-71
2023/12/01 05:18:00;;;;;;;4.90;4.55;;;;;;;-0.16;100.00;99482.25;6061534;23;20028;-72
2023/12/01 05:20:28;;;;;;;6.97;4.93;;;;;;;-0.98;100.00;99341.91;6058710;23;20095;-71
2023/12/01 05:22:57;;;;;;;8.13;5.18;;;;;;;-0.38;100.00;99407.25;6064718;23;20087;-71
2023/12/01 05:25:25;;;;;;;6.30;5.85;;;;;;;-0.24;100.00;99387.06;6055438;23;20111;-71
2023/12/01 05:27:56;;;;;;;4.55;4.13;;;;;;;-0.52;100.00;99305.44;6057215;23;20003;-71
2023/12/01 05:30:28;;;;;;;4.78;4.38;;;;;;;-0.77;100.00;99270.97;6059328;23;20496;-71
2023/12/01 05:32:56;;;;;;;4.45;3.92;;;;;;;-0.70;100.00;99264.72;6062966;23;20493;-71
2023/12/01 05:35:24;;;;;;;4.95;4.70;;;;;;;-0.73;100.00;99288.00;6061515;23;20101;-72
2023/12/01 05:37:56;;;;;;;5.85;5.30;;;;;;;-0.34;100.00;99318.63;6060308;23;20041;-71
2023/12/01 05:40:33;;;;;;;16.83;4.30;;;;;;;-0.86;100.00;99213.69;6055766;23;20038;-71
2023/12/01 05:43:00;;;;;;;7.43;4.07;;;;;;;-0.26;100.00;99272.84;6059174;23;20426;-71
2023/12/01 05:45:29;;;;;;;6.65;5.03;;;;;;;-0.72;100.00;99174.63;6050113;23;20046;-71
2023/12/01 05:47:58;;;;;;;7.53;5.50;;;;;;;-0.23;100.00;99244.41;6033193;23;20014;-71
2023/12/01 05:50:26;;;;;;;5.40;4.90;;;;;;;-0.60;100.00;99178.56;6067720;23;20416;-72
2023/12/01 05:52:57;;;;;;;11.07;4.88;;;;;;;-0.30;100.00;99233.47;6062846;23;20026;-72
2023/12/01 05:55:27;;;;;;;5.35;4.95;;;;;;;-0.21;100.00;99261.50;6067784;23;20034;-72
2023/12/01 05:57:55;;;;;;;3.50;3.30;;;;;;;-0.21;100.00;99291.59;6058903;23;20069;-71
2023/12/01 06:00:28;;;;;;;3.22;2.97;;;;;;;-0.24;100.00;99317.47;6063005;23;20034;-72
2023/12/01 06:03:14;;;;;;;13.80;3.72;;;;;;;-0.26;100.00;99347.59;6034297;23;20449;-72
2023/12/01 06:05:40;;;;;;;4.60;4.40;;;;;;;-0.45;100.00;99361.03;6053831;23;20030;-72
2023/12/01 06:08:10;;;;;;;3.83;3.63;;;;;;;-1.28;100.00;99242.31;6063141;23;20520;-73
2023/12/01 06:10:38;;;;;;;5.10;4.80;;;;;;;-0.22;100.00;99346.63;6059810;23;20075;-71
2023/12/01 06:13:05;;;;;;;4.60;4.30;;;;;;;-0.88;100.00;99230.03;6070368;23;20015;-71
2023/12/01 06:15:32;;;;;;;5.97;5.57;;;;;;;-0.18;100.00;99343.09;6052315;23;20014;-72
2023/12/01 06:18:00;;;;;;;11.35;4.30;;;;;;;-0.19;100.00;99354.28;6064807;23;20021;-71
2023/12/01 06:20:29;;;;;;;4.13;3.83;;;;;;;-0.19;100.00;99376.66;6037085;23;20493;-71
2023/12/01 06:23:01;;;;;;;4.05;3.83;;;;;;;-0.31;100.00;99364.97;6064626;23;20089;-71
2023/12/01 06:25:30;;;;;;;9.93;7.40;;;;;;;-0.42;100.00;99358.38;6065670;23;20089;-71
2023/12/01 06:28:02;;;;;;;4.35;3.95;;;;;;;-0.40;100.00;99371.25;6055781;23;20018;-71
2023/12/01 06:30:34;;;;;;;4.55;4.28;;;;;;;-0.32;100.00;99376.16;6058377;23;20030;-71
2023/12/01 06:33:05;;;;;;;4.65;4.35;;;;;;;-0.18;100.00;99342.22;6063879;23;20029;-71
2023/12/01 06:35:32;;;;;;;5.60;5.10;;;;;;;-0.51;100.00;99263.28;6041223;23;20040;-71
2023/12/01 06:37:59;;;;;;;4.47;4.07;;;;;;;-0.11;100.00;99341.16;6063970;23;20076;-71
2023/12/01 06:40:25;;;;;;;12.02;4.45;;;;;;;-0.14;100.00;99357.59;6058731;23;20026;-71
2023/12/01 06:42:54;;;;;;;5.65;4.85;;;;;;;-0.15;100.00;99373.94;6061770;23;20089;-71
2023/12/01 06:45:23;;;;;;;5.82;5.32;;;;;;;-0.16;100.00;99389.44;6034556;23;20750;-72
2023/12/01 06:47:55;;;;;;;4.65;4.35;;;;;;;-0.14;100.00;99406.56;6068185;23;20022;-71
2023/12/01 06:50:22;;;;;;;10.65;6.85;;;;;;;-0.40;100.00;99381.56;6068889;23;20705;-71
2023/12/01 06:52:50;;;;;;;4.78;4.22;;;;;;;-0.14;100.00;99434.94;6057385;23;20161;-71
2023/12/01 06:55:20;;;;;;;5.53;4.13;;;;;;;-0.39;100.00;99406.41;6077168;23;20084;-71
2023/12/01 06:57:49;;;;;;;7.00;4.60;;;;;;;-0.27;100.00;99431.00;6055634;23;20026;-71
2023/12/01 07:00:29;;;;;;;3.90;3.60;;;;;;;-0.31;100.00;99411.38;6071447;23;20018;-72
2023/12/01 07:03:04;;;;;;;6.45;4.70;;;;;;;-0.10;100.00;99444.28;6068597;23;20552;-71
2023/12/01 07:05:33;;;;;;;7.18;6.60;;;;;;;-0.09;100.00;99450.28;6062809;23;20038;-71
2023/12/01 07:08:01;;;;;;;3.97;3.78;;;;;;;-0.28;100.00;99429.31;6040452;23;20081;-72
2023/12/01 07:10:28;;;;;;;6.20;5.60;;;;;;;-0.34;100.00;99414.00;6067045;23;20021;-72
2023/12/01 07:12:55;;;;;;;6.80;4.75;;;;;;;-0.04;100.00;99458.69;6067082;23;20053;-72
2023/12/01 07:15:25;;;;;;;7.10;5.50;;;;;;;-1.39;100.00;99246.06;6062596;23;20046;-73
2023/12/01 07:17:54;;;;;;;4.43;3.92;;;;;;;-0.02;100.00;99475.84;6043308;23;20013;-72
2023/12/01 07:20:21;;;;;;;4.78;4.47;;;;;;;-0.50;100.00;99406.72;6065688;23;20162;-72
2023/12/01 07:22:49;;;;;;;4.55;4.30;;;;;;;-0.01;100.00;99487.84;6063121;23;20404;-72
2023/12/01 07:25:23;;;;;;;5.47;5.18;;;;;;;-0.01;100.00;99480.09;6076401;23;20029;-71
2023/12/01 07:28:04;;;;;;;5.50;5.07;;;;;;;0.09;100.00;99492.75;6031803;23;20351;-71
2023/12/01 07:30:31;;;;;;;3.38;3.17;;;;;;;-0.31;100.00;99434.56;6068889;23;20026;-73
2023/12/01 07:33:00;;;;;;;6.40;5.78;;;;;;;0.06;100.00;99482.50;6047778;23;20068;-71
2023/12/01 07:35:26;;;;;;;6.07;5.75;;;;;;;-0.20;100.00;99448.00;6062414;23;20422;-71
2023/12/01 07:37:53;;;;;;;5.82;5.30;;;;;;;-0.25;100.00;99434.38;6068491;23;20096;-71
2023/12/01 07:40:21;;;;;;;5.97;5.25;;;;;;;0.08;100.00;99488.47;6071832;23;20026;-71
2023/12/01 07:42:50;;;;;;;7.90;6.28;;;;;;;-0.51;100.00;99405.03;6060953;23;20006;-70
2023/12/01 07:45:17;;;;;;;5.93;4.68;;;;;;;-0.78;100.00;99349.09;6072298;23;20669;-70
2023/12/01 07:47:45;;;;;;;11.45;6.15;;;;;;;-0.53;100.00;99390.50;6058303;23;20017;-70
2023/12/01 07:50:14;;;;;;;5.10;4.78;;;;;;;0.13;100.00;99495.19;6069819;23;20045;-70
2023/12/01 07:52:42;;;;;;;4.70;4.40;;;;;;;0.17;100.00;99501.94;6057454;23;20615;-72
2023/12/01 07:55:09;;;;;;;4.63;3.60;;;;;;;-0.34;100.00;99426.91;6065211;23;20109;-71
2023/12/01 07:57:36;;;;;;;7.15;6.55;;;;;;;0.22;100.00;99522.47;6055027;23;20019;-71
2023/12/01 08:00:14;;;;;;;5.22;4.82;;;;;;;-0.44;100.00;99428.88;6070448;23;20097;-70
2023/12/01 08:02:41;;;;;;;5.82;5.43;;;;;;;0.14;100.00;99507.22;6063896;23;20984;-70
2023/12/01 08:05:14;;;;;;;4.50;4.20;;;;;;;-0.25;100.00;99458.44;6066138;23;20038;-70
2023/12/01 08:07:43;;;;;;;3.40;3.30;;;;;;;-1.52;100.00;99253.28;6058638;23;20602;-70
2023/12/01 08:10:14;;;;;;;6.72;4.57;;;;;;;-0.37;100.00;99447.63;6066102;23;20017;-70
2023/12/01 08:12:42;;;;;;;4.72;4.28;;;;;;;-0.23;100.00;99451.50;6055249;23;20022;-70
2023/12/01 08:15:10;;;;;;;4.18;3.70;;;;;;;0.11;100.00;99496.13;6063991;23;20034;-70
2023/12/01 08:17:39;;;;;;;9.85;7.88;;;;;;;0.19;100.00;99513.06;6060409;23;20405;-70
2023/12/01 08:20:07;;;;;;;5.47;4.03;;;;;;;0.12;100.00;99483.19;6073947;23;20026;-70
2023/12/01 08:22:37;;;;;;;8.30;4.82;;;;;;;0.19;100.00;99504.47;6058725;23;20077;-71
2023/12/01 08:25:05;;;;;;;4.38;3.97;;;;;;;0.24;100.00;99512.94;6064972;23;20418;-70
2023/12/01 08:27:33;;;;;;;5.75;5.35;;;;;;;0.30;100.00;99536.00;6058401;23;20026;-71
2023/12/01 08:29:59;;;;;;;4.30;3.90;;;;;;;0.21;100.00;99507.88;6068502;23;20022;-71
2023/12/01 08:32:26;;;;;;;4.30;3.97;;;;;;;0.22;100.00;99511.28;6036950;23;20026;-71
2023/12/01 08:34:54;;;;;;;4.13;3.83;;;;;;;0.16;100.00;99525.19;6054054;23;20030;-71
2023/12/01 08:37:21;;;;;;;4.00;3.65;;;;;;;-0.14;100.00;99475.31;6069656;23;20034;-72
2023/12/01 08:39:49;;;;;;;4.35;3.90;;;;;;;0.03;100.00;99505.81;6037619;23;20030;-71
2023/12/01 08:42:16;;;;;;;5.50;5.20;;;;;;;0.16;100.00;99530.34;6059295;23;20104;-71
2023/12/01 08:44:43;;;;;;;5.00;4.70;;;;;;;-0.08;100.00;99483.75;6063572;23;20038;-71
2023/12/01 08:47:11;;;;;;;5.03;4.63;;;;;;;0.02;100.00;99475.75;6056711;23;20038;-70
2023/12/01 08:49:38;;;;;;;4.60;4.40;;;;;;;-0.54;100.00;99422.28;6062459;23;20397;-71
2023/12/01 08:52:04;;;;;;;6.70;5.15;;;;;;;0.07;100.00;99495.34;6060633;23;20034;-72
2023/12/01 08:54:31;;;;;;;3.97;3.67;;;;;;;-0.08;100.00;99473.44;6064938;23;20029;-70
2023/12/01 08:57:03;;;;;;;3.72;3.53;;;;;;;-0.65;100.00;99381.38;6064657;23;20060;-70
2023/12/01 08:59:30;;;;;;;5.75;5.45;;;;;;;-0.51;100.00;99392.13;6055196;23;20026;-70
2023/12/01 09:01:56;;;;;;;3.55;3.35;;;;;;;-0.26;100.00;99414.63;6072046;23;20049;-70
2023/12/01 09:04:23;;;;;;;2.75;2.63;;;;;;;0.00;100.00;99460.34;6058818;23;20022;-70
2023/12/01 09:06:50;;;;;;;4.30;4.03;;;;;;;0.13;100.00;99460.81;6075708;23;20026;-71
2023/12/01 09:09:17;;;;;;;4.95;4.13;;;;;;;-0.28;100.00;99398.38;6065905;23;20034;-70
2023/12/01 09:11:43;;;;;;;3.85;3.65;;;;;;;0.22;100.00;99477.75;6060244;23;20492;-71
2023/12/01 09:14:10;;;;;;;4.75;4.35;;;;;;;0.23;100.00;99459.63;6054180;23;20039;-70
2023/12/01 09:16:36;;;;;;;5.63;4.80;;;;;;;-0.14;100.00;99385.94;6069818;23;20113;-70
2023/12/01 09:19:03;;;;;;;4.20;3.95;;;;;;;-0.43;100.00;99342.97;6057905;23;20028;-70
2023/12/01 09:21:32;;;;;;;5.55;5.25;;;;;;;0.05;100.00;99413.75;6057777;23;20068;-70
2023/12/01 09:23:59;;;;;;;5.10;4.60;;;;;;;-0.16;100.00;99374.84;6059528;23;20709;-71
2023/12/01 09:26:26;;;;;;;4.70;4.30;;;;;;;-0.13;100.00;99397.94;6069776;23;20018;-72
2023/12/01 09:28:52;;;;;;;4.15;3.75;;;;;;;-0.56;100.00;99327.03;6062675;23;20090;-71
2023/12/01 09:31:19;;;;;;;3.03;2.88;;;;;;;-0.14;100.00;99406.56;6072060;23;20488;-71
2023/12/01 09:33:45;;;;;;;5.30;4.90;;;;;;;-0.02;100.00;99405.34;6063409;23;20148;-71
2023/12/01 09:36:17;;;;;;;3.03;2.92;;;;;;;-0.04;100.00;99407.13;6070160;23;20034;-71
2023/12/01 09:38:44;;;;;;;4.00;3.80;;;;;;;-0.66;100.00;99320.41;6062982;23;20060;-73
2023/12/01 09:41:11;;;;;;;3.88;3.58;;;;;;;-0.59;100.00;99297.91;6060652;23;20040;-71
2023/12/01 09:43:38;;;;;;;4.40;4.20;;;;;;;-0.50;100.00;99302.78;6029878;23;20036;-72
2023/12/01 09:46:07;;;;;;;3.67;3.47;;;;;;;0.06;100.00;99395.66;6060163;23;20022;-72
2023/12/01 09:48:37;;;;;;;6.40;4.28;;;;;;;-0.53;100.00;99302.88;6059639;23;20064;-72
2023/12/01 09:51:04;;;;;;;3.75;3.45;;;;;;;-0.53;100.00;99349.28;6061423;23;20096;-71
2023/12/01 09:53:30;;;;;;;5.18;4.88;;;;;;;-0.29;100.00;99394.13;6060085;23;20029;-71
2023/12/01 09:55:58;;;;;;;9.50;5.63;;;;;;;-0.04;100.00;99499.97;6072299;23;20040;-71
2023/12/01 09:58:26;;;;;;;3.67;3.47;;;;;;;-0.13;100.00;99528.59;6056746;23;20084;-71
2023/12/01 10:00:53;;;;;;;3.92;3.72;;;;;;;-0.87;100.00;99425.72;6058556;23;20096;-70
2023/12/01 10:03:19;;;;;;;3.65;3.38;;;;;;;-0.58;100.00;99506.59;6062419;23;20022;-71
2023/12/01 10:05:46;;;;;;;4.80;4.50;;;;;;;-0.39;100.00;99531.88;6040064;23;20017;-71
2023/12/01 10:08:15;;;;;;;4.55;4.15;;;;;;;-0.65;100.00;99508.47;6063961;23;20045;-71
2023/12/01 10:10:42;;;;;;;4.63;4.25;;;;;;;-0.45;100.00;99572.38;6052696;23;20104;-72
2023/12/01 10:13:10;;;;;;;5.82;4.43;;;;;;;-0.31;100.00;99578.91;6066201;23;20018;-71
2023/12/01 10:15:38;;;;;;;6.57;5.05;;;;;;;-0.71;100.00;99515.50;6058313;23;20442;-71
2023/12/01 10:18:13;;;;;;;4.45;4.15;;;;;;;-0.45;100.00;99551.75;6035191;23;20030;-71
2023/12/01 10:21:07;;;;;;;6.78;4.40;;;;;;;-0.20;100.00;99597.56;6071082;23;20113;-71
2023/12/01 10:23:34;;;;;;;4.88;4.60;;;;;;;-0.18;100.00;99577.72;6059969;23;20033;-73
2023/12/01 10:26:04;;;;;;;6.85;4.03;;;;;;;-0.21;100.00;99562.31;6064134;23;20420;-71
2023/12/01 10:28:40;;;;;;;9.60;5.13;;;;;;;-0.24;100.00;99552.94;6053918;23;20048;-72
2023/12/01 10:31:07;;;;;;;4.03;3.83;;;;;;;-0.18;100.00;99559.69;6064100;23;20050;-72
2023/12/01 10:33:35;;;;;;;6.90;6.30;;;;;;;-0.23;100.00;99538.31;6058990;23;20666;-71
2023/12/01 10:36:02;;;;;;;4.80;4.50;;;;;;;-0.15;100.00;99563.91;6069195;23;20117;-71
2023/12/01 10:38:30;;;;;;;4.05;3.75;;;;;;;-0.22;100.00;99538.28;6066514;23;20038;-71
2023/12/01 10:40:59;;;;;;;3.70;3.50;;;;;;;-0.28;100.00;99540.16;6063725;23;20022;-71
2023/12/01 10:43:29;;;;;;;6.03;5.68;;;;;;;-0.37;100.00;99517.22;6065222;23;20042;-71
2023/12/01 10:46:01;;;;;;;4.95;4.55;;;;;;;-0.35;100.00;99508.53;6058797;23;20293;-71
2023/12/01 10:48:29;;;;;;;2.80;2.70;;;;;;;-0.47;100.00;99483.94;6056268;23;20025;-72
2023/12/01 10:50:56;;;;;;;4.55;4.25;;;;;;;-0.62;100.00;99458.59;6043807;23;20084;-71
2023/12/01 10:53:26;;;;;;;6.63;6.00;;;;;;;-0.24;100.00;99495.34;6046049;23;20509;-70
2023/12/01 10:55:54;;;;;;;6.38;4.03;;;;;;;-0.15;100.00;99505.44;6043566;23;20202;-70
2023/12/01 10:58:25;;;;;;;4.07;3.80;;;;;;;-0.02;100.00;99526.56;6045779;23;20038;-70
2023/12/01 11:00:53;;;;;;;4.47;4.05;;;;;;;-0.42;100.00;99451.16;6062168;23;20030;-70
2023/12/01 11:03:23;;;;;;;4.43;4.15;;;;;;;-0.87;100.00;99363.91;6057681;23;20033;-71
2023/12/01 11:06:21;;;;;;;3.55;3.35;;;;;;;-0.05;100.00;99493.97;6062781;23;20064;-70
2023/12/01 11:09:15;;;;;;;5.25;4.28;;;;;;;-0.19;100.00;99480.63;6032312;23;20481;-71
2023/12/01 11:12:22;;;;;;;4.38;4.10;;;;;;;-0.07;100.00;99464.78;6055255;23;20026;-71
2023/12/01 11:14:51;;;;;;;3.95;3.65;;;;;;;-0.47;100.00;99398.91;6052050;23;20022;-71
2023/12/01 11:17:19;;;;;;;3.05;2.85;;;;;;;-0.47;100.00;99392.91;6064405;23;20099;-71
2023/12/01 11:19:46;;;;;;;4.68;3.40;;;;;;;-0.06;100.00;99456.19;6067621;23;20030;-71
2023/12/01 11:22:32;;;;;;;3.63;3.42;;;;;;;0.00;100.00;99452.59;6054570;23;20418;-70
2023/12/01 11:24:59;;;;;;;3.00;2.90;;;;;;;-0.04;100.00;99432.91;6040617;23;20041;-70
2023/12/01 11:27:26;;;;;;;4.25;4.05;;;;;;;-0.13;100.00;99415.97;6051700;23;20042;-70
2023/12/01 11:30:08;;;;;;;4.22;3.95;;;;;;;-0.25;100.00;99391.41;6037362;23;20061;-71
2023/12/01 11:32:40;;;;;;;4.75;3.45;;;;;;;-0.44;100.00;99364.44;6061769;23;20013;-71